Airfield :
LOGIN :

Register | Disclaimer

   EN    FR    IT 

 










Legend :    VFR   Marginal VFR   IFR   Intensive IFR   Very Intensive IFR
Visi :
Ceiling :
>= 8 km
>= 3000ft
5 to 8 km
1000 to 3000 ft
1500m to 5 km
500 to 1000 ft
800 to 1500m
200 to 500 ft
< 800m
< 200 ft
Symbols :   Thunderstorms  Fog  Heavy snow  Heavy precipitations  Wind > 20 kt
SIGMETs :     Misc.  Thunderstorms  Icing  Turbulence  Mountain Waves  Volcanic Ashes






- Airport Elevation : 3 ft
- IATA code : LWR


EHLW - Leuuwarden Air Base

CURRENT METAR :
  • 171926Z AUTO 27004KT 9999 FEW016 OVC034 10/07 Q1007 BLU

EXPIRED METARs :
  • 171925Z AUTO 28004KT 250V310 9999 BKN016 OVC034 10/07 Q1007 WHT
  • 171907Z AUTO 29005KT 250V310 9999 SCT016 BKN034 10/07 Q1007 WHT
  • 171855Z AUTO 31005KT 270V330 9999 FEW022 BKN026 OVC029 10/08 Q1006 BLU
  • 171841Z AUTO 31006KT 280V340 9999 OVC026 10/07 Q1006 BLU
  • 171837Z AUTO 31005KT 270V340 9999 BKN024 OVC027 11/07 Q1006 WHT
  • 171826Z AUTO 31006KT 280V360 9999 OVC025 11/07 Q1006 BLU
  • 171755Z AUTO 30008KT 260V330 9999 SCT020 OVC023 11/07 Q1006 WHT
  • 171725Z AUTO 30008KT 260V340 9999 FEW017 SCT021 OVC024 11/08 Q1006 WHT
  • 171721Z AUTO 30008KT 270V010 9999 FEW021 OVC025 11/08 Q1005 BLU
  • 171655Z AUTO 32009KT 280V350 9999 FEW017 SCT020 OVC023 11/08 Q1005 WHT

TAF TAF EHLW
Valid from the 17 at 17:00 until the 18 at 05:00 UTC


171634Z 1717/1805 31010KT 9999 SCT020 BKN025
TEMPO 1717/1805 SCT015 BKN020
PROB40
TEMPO 1719/1805 SCT006 BKN010
BECMG 1718/1721 27006KT



MET'MAP, your aeronautical weather chart ! - Copyright ORBIFLY December 2007 - Disclaimer

ORBIFLY MET'MAP TEAM :

Programming & Development : Alexandra Zaïnal
Concept & original design : Baudouin d'Aumeries
Assistance for programming : Marc-Olivier Méhu
Technical & hardware support : Manuel Goepfert

Contact : metmap@orbifly.com




SOURCES & CREDITS :

   NOAA